createdAt,value
2023-04-24T03:00:22.990Z,99234.58
2023-04-24T03:02:51.822Z,99234.19
2023-04-24T03:05:21.206Z,99231.84
2023-04-24T03:07:49.349Z,99231.57
2023-04-24T03:10:17.530Z,99230.60
2023-04-24T03:12:46.641Z,99226.50
2023-04-24T03:15:14.957Z,99229.42
2023-04-24T03:17:44.280Z,99229.45
2023-04-24T03:20:13.959Z,99232.48
2023-04-24T03:22:43.335Z,99232.02
2023-04-24T03:25:12.316Z,99232.27
2023-04-24T03:27:41.246Z,99231.46
2023-04-24T03:30:25.446Z,99231.55
2023-04-24T03:32:58.962Z,99232.30
2023-04-24T03:35:31.746Z,99231.04
2023-04-24T03:38:05.598Z,99230.33
2023-04-24T03:41:00.924Z,99231.07
2023-04-24T03:43:43.593Z,99228.92
2023-04-24T03:46:12.920Z,99228.91
2023-04-24T03:48:45.778Z,99229.52
2023-04-24T03:51:15.740Z,99227.70
2023-04-24T03:53:46.988Z,99226.13
2023-04-24T03:56:21.649Z,99226.23
2023-04-24T03:58:50.822Z,99224.94
2023-04-24T04:01:22.159Z,99223.91
2023-04-24T04:04:03.411Z,99226.74
2023-04-24T04:06:32.708Z,99228.11
2023-04-24T04:09:02.215Z,99232.70
2023-04-24T04:11:32.329Z,99232.77
2023-04-24T04:14:01.398Z,99235.54
2023-04-24T04:16:31.002Z,99236.42
2023-04-24T04:19:04.736Z,99238.62
2023-04-24T04:21:33.608Z,99238.35
2023-04-24T04:24:17.150Z,99237.30
2023-04-24T04:26:49.049Z,99236.59
2023-04-24T04:29:27.476Z,99245.02
2023-04-24T04:31:56.828Z,99243.91
2023-04-24T04:34:26.406Z,99244.46
2023-04-24T04:36:55.487Z,99244.21
2023-04-24T04:39:55.402Z,99245.68
2023-04-24T04:42:29.819Z,99248.23
2023-04-24T04:44:59.073Z,99248.18
2023-04-24T04:47:34.281Z,99249.63
2023-04-24T04:50:05.123Z,99250.99
2023-04-24T04:52:34.691Z,99250.27
2023-04-24T04:55:14.763Z,99251.42
2023-04-24T04:58:04.050Z,99251.51
2023-04-24T05:00:37.623Z,99253.80
2023-04-24T05:05:47.990Z,99251.94
2023-04-24T05:08:26.364Z,99257.14
2023-04-24T05:10:57.893Z,99255.52
2023-04-24T05:13:39.256Z,99254.70
2023-04-24T05:16:22.023Z,99252.98
2023-04-24T05:18:51.632Z,99252.98
2023-04-24T05:21:24.606Z,99250.80
2023-04-24T05:23:54.282Z,99251.42
2023-04-24T05:26:34.254Z,99251.02
2023-04-24T05:29:03.757Z,99247.02
2023-04-24T05:31:33.640Z,99249.62
2023-04-24T05:34:02.725Z,99252.77
2023-04-24T05:36:33.092Z,99250.41
2023-04-24T05:39:02.237Z,99245.61
2023-04-24T05:41:31.244Z,99244.41
2023-04-24T05:43:59.807Z,99247.23
2023-04-24T05:46:29.145Z,99244.66
2023-04-24T05:48:58.755Z,99244.30
2023-04-24T05:51:27.768Z,99242.85
2023-04-24T05:53:56.272Z,99238.28
2023-04-24T05:56:25.192Z,99239.30
2023-04-24T05:58:53.461Z,99233.47
2023-04-24T06:01:21.782Z,99230.77
2023-04-24T06:03:55.519Z,99227.17
2023-04-24T06:06:25.130Z,99222.88
2023-04-24T06:08:53.668Z,99223.35
2023-04-24T06:11:22.460Z,99225.66
2023-04-24T06:13:51.602Z,99226.91
2023-04-24T06:16:52.449Z,99223.00
2023-04-24T06:19:33.145Z,99221.57
2023-04-24T06:22:02.294Z,99222.14
2023-04-24T06:24:31.199Z,99224.24
2023-04-24T06:27:02.208Z,99222.98
2023-04-24T06:29:31.203Z,99221.75
2023-04-24T06:32:00.084Z,99218.33
2023-04-24T06:34:29.133Z,99216.20
2023-04-24T06:36:58.896Z,99216.52
2023-04-24T06:39:27.441Z,99207.90
2023-04-24T06:41:56.655Z,99204.81
2023-04-24T06:44:26.003Z,99200.92
2023-04-24T06:46:54.550Z,99201.81
2023-04-24T06:49:22.995Z,99196.73
2023-04-24T06:51:51.136Z,99195.55
2023-04-24T06:54:20.024Z,99191.73
2023-04-24T06:56:50.058Z,99192.59
2023-04-24T06:59:18.816Z,99195.33
2023-04-24T07:01:47.785Z,99192.98
2023-04-24T07:04:17.335Z,99186.35
2023-04-24T07:06:50.592Z,99186.77
2023-04-24T07:09:23.538Z,99187.64
2023-04-24T07:11:52.836Z,99188.05
2023-04-24T07:14:22.216Z,99183.77
2023-04-24T07:16:51.313Z,99180.10
2023-04-24T07:19:20.439Z,99184.01
2023-04-24T07:21:49.275Z,99183.73
2023-04-24T07:24:19.048Z,99184.39
2023-04-24T07:26:49.863Z,99185.06
2023-04-24T07:29:18.645Z,99183.61
2023-04-24T07:31:47.648Z,99185.91
2023-04-24T07:34:16.287Z,99185.52
2023-04-24T07:36:44.519Z,99184.50
2023-04-24T07:39:14.092Z,99185.51
2023-04-24T07:41:42.676Z,99186.89
2023-04-24T07:44:11.631Z,99183.41
2023-04-24T07:46:40.502Z,99184.40
2023-04-24T07:49:13.825Z,99180.90
2023-04-24T07:51:44.146Z,99178.96
2023-04-24T07:54:12.389Z,99175.02
2023-04-24T07:56:44.500Z,99176.02
2023-04-24T07:59:13.594Z,99171.80
2023-04-24T08:01:42.220Z,99166.02
2023-04-24T08:04:11.192Z,99167.55
2023-04-24T08:06:40.458Z,99159.50
2023-04-24T08:09:08.903Z,99157.83
2023-04-24T08:11:36.969Z,99159.11
2023-04-24T08:14:05.969Z,99158.24
2023-04-24T08:16:34.747Z,99157.58
2023-04-24T08:19:03.509Z,99156.23
2023-04-24T08:21:31.936Z,99157.10
2023-04-24T08:24:00.509Z,99154.76
2023-04-24T08:26:29.160Z,99154.52
2023-04-24T08:28:58.038Z,99149.91
2023-04-24T08:31:27.366Z,99154.74
2023-04-24T08:33:56.649Z,99152.94
2023-04-24T08:36:35.945Z,99151.41
2023-04-24T08:39:09.412Z,99147.35
2023-04-24T08:41:39.610Z,99145.00
2023-04-24T08:44:10.549Z,99149.00
2023-04-24T08:46:42.232Z,99142.23
2023-04-24T08:49:11.598Z,99136.92
2023-04-24T08:51:41.314Z,99140.09
2023-04-24T08:54:09.769Z,99136.15
2023-04-24T08:56:41.677Z,99136.46
2023-04-24T08:59:10.276Z,99135.88
2023-04-24T09:01:41.784Z,99133.02
2023-04-24T09:04:16.451Z,99134.59
2023-04-24T09:06:46.596Z,99133.31
2023-04-24T09:09:15.243Z,99133.69
2023-04-24T09:11:44.333Z,99132.90
2023-04-24T09:14:13.704Z,99133.79
2023-04-24T09:16:42.816Z,99133.06
2023-04-24T09:19:13.258Z,99135.30
2023-04-24T09:21:45.687Z,99132.77
2023-04-24T09:24:23.702Z,99129.25
2023-04-24T09:27:02.763Z,99123.55
2023-04-24T09:29:31.247Z,99123.59
2023-04-24T09:32:01.521Z,99120.36
2023-04-24T09:34:31.085Z,99123.41
2023-04-24T09:36:59.381Z,99115.19
2023-04-24T09:39:27.538Z,99114.32
2023-04-24T09:42:00.709Z,99116.24
2023-04-24T09:44:30.990Z,99111.30
2023-04-24T09:47:01.329Z,99110.42
2023-04-24T09:49:32.156Z,99111.42
2023-04-24T09:52:07.786Z,99109.58
2023-04-24T09:54:38.260Z,99107.51
2023-04-24T09:57:09.263Z,99107.63
2023-04-24T09:59:44.249Z,99107.80
2023-04-24T10:02:20.992Z,99102.99
2023-04-24T10:04:58.031Z,99099.24
2023-04-24T10:07:30.108Z,99092.09
2023-04-24T10:10:00.123Z,99093.29
2023-04-24T10:12:30.492Z,99092.27
2023-04-24T10:14:59.532Z,99088.92
2023-04-24T10:17:29.790Z,99094.80
2023-04-24T10:19:59.254Z,99097.17
2023-04-24T10:22:28.455Z,99093.84
2023-04-24T10:24:57.895Z,99092.52
2023-04-24T10:27:29.000Z,99093.80
2023-04-24T10:29:57.845Z,99094.35
2023-04-24T10:32:28.126Z,99092.71
2023-04-24T10:34:58.123Z,99091.49
2023-04-24T10:37:27.260Z,99088.34
2023-04-24T10:39:57.442Z,99091.17
2023-04-24T10:42:28.752Z,99094.13
2023-04-24T10:44:59.746Z,99096.83
2023-04-24T10:47:28.296Z,99096.88
2023-04-24T10:50:01.433Z,99093.41
2023-04-24T10:52:45.851Z,99090.89
2023-04-24T10:55:16.729Z,99094.41
2023-04-24T10:58:05.226Z,99095.23
2023-04-24T11:00:34.515Z,99092.98
2023-04-24T11:03:06.255Z,99093.38
2023-04-24T11:05:53.834Z,99090.05
2023-04-24T11:08:30.075Z,99089.18
2023-04-24T11:11:12.391Z,99086.81
2023-04-24T11:13:56.806Z,99087.11
2023-04-24T11:16:30.551Z,99087.45
2023-04-24T11:19:02.524Z,99082.00
2023-04-24T11:21:41.504Z,99084.36
2023-04-24T11:24:31.683Z,99086.36
2023-04-24T11:27:00.731Z,99087.26
2023-04-24T11:29:41.378Z,99086.71
2023-04-24T11:32:21.553Z,99086.23
2023-04-24T11:34:51.745Z,99087.35
2023-04-24T11:37:20.453Z,99087.07
2023-04-24T11:39:51.991Z,99077.98
2023-04-24T11:42:21.854Z,99078.71
2023-04-24T11:44:54.044Z,99079.06
2023-04-24T11:47:29.785Z,99075.70
2023-04-24T11:50:00.068Z,99076.00
2023-04-24T11:52:31.055Z,99078.39
2023-04-24T11:55:01.827Z,99079.33
2023-04-24T11:57:36.036Z,99071.09
2023-04-24T12:00:07.416Z,99076.98
2023-04-24T12:02:43.359Z,99072.14
2023-04-24T12:05:26.326Z,99074.73
2023-04-24T12:07:55.076Z,99072.14
2023-04-24T12:10:27.825Z,99065.80
2023-04-24T12:12:57.941Z,99061.66
2023-04-24T12:15:27.332Z,99068.17
2023-04-24T12:17:57.396Z,99067.98
2023-04-24T12:20:29.208Z,99065.27
2023-04-24T12:22:59.185Z,99063.55
2023-04-24T12:25:29.012Z,99060.02
2023-04-24T12:28:14.277Z,99054.30
2023-04-24T12:30:49.953Z,99052.05
2023-04-24T12:33:20.312Z,99050.27
2023-04-24T12:35:50.691Z,99049.23
2023-04-24T12:38:23.578Z,99046.73
2023-04-24T12:41:04.419Z,99045.13
2023-04-24T12:43:34.383Z,99044.52
2023-04-24T12:46:03.677Z,99046.38
2023-04-24T12:48:33.147Z,99037.55
2023-04-24T12:51:03.165Z,99039.07
2023-04-24T12:53:32.494Z,99031.68
2023-04-24T12:56:01.290Z,99028.33
2023-04-24T12:58:30.295Z,99022.35
2023-04-24T13:00:59.108Z,99019.38
2023-04-24T13:03:28.178Z,99018.67
2023-04-24T13:05:58.081Z,99012.56
2023-04-24T13:08:26.581Z,99007.14
2023-04-24T13:10:55.216Z,99004.58
2023-04-24T13:13:24.282Z,99000.30
2023-04-24T13:15:52.823Z,98995.55
2023-04-24T13:18:21.789Z,98988.60
2023-04-24T13:20:50.821Z,98988.11
2023-04-24T13:23:20.119Z,98988.39
2023-04-24T13:25:49.091Z,98984.56
2023-04-24T13:28:17.213Z,98983.14
2023-04-24T13:30:46.021Z,98981.67
2023-04-24T13:33:14.568Z,98983.29
2023-04-24T13:35:43.588Z,98987.93
2023-04-24T13:38:12.024Z,98984.54
2023-04-24T13:40:40.722Z,98975.03
2023-04-24T13:43:09.954Z,98970.52
2023-04-24T13:45:39.136Z,98969.91
2023-04-24T13:48:07.806Z,98964.14
2023-04-24T13:50:36.480Z,98969.77
2023-04-24T13:53:06.036Z,98968.06
2023-04-24T13:55:35.241Z,98966.66
2023-04-24T13:58:04.186Z,98962.06
2023-04-24T14:00:33.618Z,98957.45
2023-04-24T14:03:02.774Z,98953.25
2023-04-24T14:05:31.380Z,98952.16
2023-04-24T14:08:00.261Z,98948.20
2023-04-24T14:10:29.605Z,98944.08
2023-04-24T14:12:58.978Z,98947.38
2023-04-24T14:15:27.865Z,98946.27
2023-04-24T14:17:56.707Z,98945.27
2023-04-24T14:20:25.937Z,98939.70
2023-04-24T14:22:54.792Z,98942.07
2023-04-24T14:25:24.016Z,98940.96
2023-04-24T14:27:53.207Z,98941.33
2023-04-24T14:30:22.089Z,98941.80
2023-04-24T14:32:51.098Z,98939.00
2023-04-24T14:35:19.950Z,98937.30
2023-04-24T14:37:50.070Z,98933.39
2023-04-24T14:40:39.549Z,98931.73
2023-04-24T14:43:08.725Z,98926.23
2023-04-24T14:45:38.575Z,98929.13
2023-04-24T14:48:07.544Z,98924.54
2023-04-24T14:50:36.813Z,98922.10
2023-04-24T14:53:06.012Z,98919.11
2023-04-24T14:55:37.326Z,98916.77
2023-04-24T14:58:06.337Z,98913.42
2023-04-24T15:00:35.524Z,98907.41
2023-04-24T15:03:05.741Z,98903.84
2023-04-24T15:05:35.619Z,98898.48
2023-04-24T15:08:05.039Z,98896.80
2023-04-24T15:10:34.000Z,98893.52
2023-04-24T15:13:02.999Z,98890.34
2023-04-24T15:15:31.750Z,98888.77
2023-04-24T15:18:01.064Z,98891.77
2023-04-24T15:20:30.032Z,98891.40
2023-04-24T15:23:01.655Z,98894.21
2023-04-24T15:25:30.867Z,98892.16
2023-04-24T15:28:00.284Z,98888.77
2023-04-24T15:30:29.286Z,98891.31
2023-04-24T15:32:57.689Z,98898.58
2023-04-24T15:35:26.754Z,98899.34
2023-04-24T15:37:56.338Z,98905.05
2023-04-24T15:40:24.435Z,98918.20
2023-04-24T15:42:53.353Z,98941.77
2023-04-24T15:45:22.181Z,98941.13
2023-04-24T15:47:51.668Z,98949.77
2023-04-24T15:50:22.025Z,98956.95
2023-04-24T15:52:50.793Z,98967.86
2023-04-24T15:55:19.807Z,98977.11
2023-04-24T15:57:48.848Z,98978.92
2023-04-24T16:00:19.121Z,98980.38
2023-04-24T16:02:51.101Z,98990.50
2023-04-24T16:05:20.781Z,98988.90
2023-04-24T16:07:49.563Z,98992.20
2023-04-24T16:10:18.793Z,98993.98
2023-04-24T16:12:47.823Z,98991.50
2023-04-24T16:15:16.693Z,98992.45
2023-04-24T16:17:46.506Z,99001.50
2023-04-24T16:20:15.735Z,98996.08
2023-04-24T16:22:45.832Z,98988.46
2023-04-24T16:25:14.737Z,98988.20
2023-04-24T16:27:43.758Z,98979.69
2023-04-24T16:30:12.747Z,98976.00
2023-04-24T16:32:41.984Z,98961.56
2023-04-24T16:35:12.019Z,98953.60
2023-04-24T16:37:40.770Z,98947.03
2023-04-24T16:40:11.357Z,98949.48
2023-04-24T16:42:40.408Z,98948.95
2023-04-24T16:45:10.447Z,98943.09
2023-04-24T16:47:39.154Z,98945.20
2023-04-24T16:50:08.274Z,98942.96
2023-04-24T16:52:38.396Z,98939.64
2023-04-24T16:55:07.581Z,98937.12
2023-04-24T16:57:36.884Z,98936.69
2023-04-24T17:00:05.982Z,98935.35
2023-04-24T17:02:34.442Z,98926.63
2023-04-24T17:05:03.086Z,98925.25
2023-04-24T17:07:32.249Z,98923.98
2023-04-24T17:10:00.584Z,98921.95
2023-04-24T17:12:29.832Z,98921.98
2023-04-24T17:14:58.734Z,98919.98
2023-04-24T17:17:27.980Z,98917.58
2023-04-24T17:19:56.480Z,98916.22
2023-04-24T17:22:24.764Z,98911.33
2023-04-24T17:24:53.116Z,98912.96
2023-04-24T17:27:22.133Z,98910.48
2023-04-24T17:29:50.919Z,98906.95
2023-04-24T17:32:19.593Z,98909.08
2023-04-24T17:34:49.378Z,98910.81
2023-04-24T17:37:20.645Z,98913.05
2023-04-24T17:39:49.988Z,98916.16
2023-04-24T17:42:18.636Z,98924.48
2023-04-24T17:44:47.874Z,98939.13
2023-04-24T17:47:16.625Z,98976.96
2023-04-24T17:49:45.057Z,98996.45
2023-04-24T17:52:14.751Z,99005.88
2023-04-24T17:54:43.302Z,99012.69
2023-04-24T17:57:12.191Z,99016.84
2023-04-24T17:59:42.288Z,99016.61
2023-04-24T18:02:10.775Z,99019.44
2023-04-24T18:04:40.945Z,99023.21
2023-04-24T18:07:10.043Z,99020.98
2023-04-24T18:09:38.499Z,99018.98
2023-04-24T18:12:06.913Z,99026.80
2023-04-24T18:14:35.374Z,99039.52
2023-04-24T18:17:03.667Z,99048.56
2023-04-24T18:19:31.884Z,99057.40
2023-04-24T18:22:00.256Z,99063.92
2023-04-24T18:24:28.464Z,99062.49
2023-04-24T18:26:57.738Z,99063.23
2023-04-24T18:29:26.267Z,99063.67
2023-04-24T18:31:55.121Z,99065.60
2023-04-24T18:34:23.622Z,99065.13
2023-04-24T18:36:52.426Z,99067.23
2023-04-24T18:39:22.951Z,99060.45
2023-04-24T18:41:51.767Z,99059.63
2023-04-24T18:44:20.574Z,99058.40
2023-04-24T18:46:48.768Z,99060.66
2023-04-24T18:49:18.488Z,99059.80
2023-04-24T18:51:54.002Z,99059.77
2023-04-24T18:54:24.049Z,99055.50
2023-04-24T18:56:52.794Z,99055.11
2023-04-24T18:59:21.412Z,99052.89
2023-04-24T19:01:49.884Z,99054.34
2023-04-24T19:04:21.150Z,99056.20
2023-04-24T19:06:49.851Z,99050.49
2023-04-24T19:09:19.012Z,99048.58
2023-04-24T19:11:48.310Z,99049.73
2023-04-24T19:14:16.864Z,99048.80
2023-04-24T19:16:45.858Z,99046.58
2023-04-24T19:19:14.391Z,99043.68
2023-04-24T19:21:44.514Z,99037.46
2023-04-24T19:24:13.685Z,99036.20
2023-04-24T19:26:44.287Z,99037.33
2023-04-24T19:29:14.537Z,99038.92
2023-04-24T19:31:43.294Z,99038.80
2023-04-24T19:34:11.943Z,99038.19
2023-04-24T19:36:40.838Z,99037.23
2023-04-24T19:39:11.687Z,99038.48
2023-04-24T19:41:40.339Z,99034.21
2023-04-24T19:44:10.353Z,99030.23
2023-04-24T19:46:40.261Z,99027.85
2023-04-24T19:49:09.458Z,99022.48
2023-04-24T19:51:38.780Z,99019.02
2023-04-24T19:54:09.009Z,99017.54
2023-04-24T19:56:37.465Z,99014.36
2023-04-24T19:59:06.408Z,99017.79
2023-04-24T20:01:35.121Z,99008.20
2023-04-24T20:04:07.218Z,99003.96
2023-04-24T20:06:35.639Z,99003.77
2023-04-24T20:09:06.471Z,99001.65
2023-04-24T20:11:36.146Z,98998.20
2023-04-24T20:14:05.166Z,98996.77
2023-04-24T20:16:38.321Z,98993.23
2023-04-24T20:19:09.470Z,98992.67
2023-04-24T20:21:38.371Z,98985.34
2023-04-24T20:24:09.187Z,98981.96
2023-04-24T20:26:38.620Z,98974.40
2023-04-24T20:29:09.432Z,98967.23
2023-04-24T20:31:39.443Z,98968.86
2023-04-24T20:34:08.353Z,98974.16
2023-04-24T20:36:37.549Z,98985.56
2023-04-24T20:39:07.619Z,98986.98
2023-04-24T20:41:36.985Z,98986.00
2023-04-24T20:44:06.164Z,98991.23
2023-04-24T20:46:35.075Z,98992.48
2023-04-24T20:49:04.802Z,98992.15
2023-04-24T20:51:34.276Z,98997.00
2023-04-24T20:54:04.299Z,98992.34
2023-04-24T20:56:33.461Z,98988.33
2023-04-24T20:59:02.649Z,98987.29
2023-04-24T21:01:31.154Z,98982.23
2023-04-24T21:04:00.576Z,98975.39
2023-04-24T21:06:29.471Z,98973.22
2023-04-24T21:08:58.053Z,98965.29
2023-04-24T21:11:26.730Z,98970.14
2023-04-24T21:13:55.893Z,98981.70
2023-04-24T21:16:25.276Z,98985.73
2023-04-24T21:18:54.903Z,98985.45
2023-04-24T21:21:25.749Z,98975.02
2023-04-24T21:23:55.039Z,98969.12
2023-04-24T21:26:24.230Z,98973.88
2023-04-24T21:28:53.172Z,98976.96
2023-04-24T21:31:22.239Z,98975.99
2023-04-24T21:33:51.348Z,98978.14
2023-04-24T21:36:20.848Z,98978.77
2023-04-24T21:38:49.654Z,98980.46
2023-04-24T21:41:18.653Z,98982.38
2023-04-24T21:43:50.339Z,98978.80
2023-04-24T21:46:19.562Z,98976.90
2023-04-24T21:48:48.088Z,98976.52
2023-04-24T21:51:18.332Z,98968.50
2023-04-24T21:53:47.927Z,98963.15
2023-04-24T21:56:17.166Z,98962.21
2023-04-24T21:58:46.528Z,98961.44
2023-04-24T22:01:15.871Z,98958.48
2023-04-24T22:03:45.107Z,98960.35
2023-04-24T22:06:15.332Z,98956.11
2023-04-24T22:08:48.374Z,98955.95
2023-04-24T22:11:26.627Z,98956.58
2023-04-24T22:13:57.151Z,98958.48
2023-04-24T22:16:26.872Z,98962.17
2023-04-24T22:18:57.152Z,98962.85
2023-04-24T22:21:26.888Z,98967.25
2023-04-24T22:23:55.957Z,98966.97
2023-04-24T22:26:25.089Z,98964.24
2023-04-24T22:28:53.688Z,98968.19
2023-04-24T22:31:22.682Z,98969.80
2023-04-24T22:33:52.273Z,98968.37
2023-04-24T22:36:22.034Z,98970.67
2023-04-24T22:38:50.412Z,98970.47
2023-04-24T22:41:19.452Z,98972.73
2023-04-24T22:43:48.684Z,98968.39
2023-04-24T22:46:17.832Z,98969.61
2023-04-24T22:48:49.022Z,98968.73
2023-04-24T22:51:19.003Z,98967.61
2023-04-24T22:53:50.182Z,98966.88
2023-04-24T22:56:19.509Z,98967.44
2023-04-24T22:58:48.674Z,98965.73
2023-04-24T23:01:18.072Z,98967.89
2023-04-24T23:03:46.923Z,98967.63
2023-04-24T23:06:16.301Z,98965.99
2023-04-24T23:08:46.764Z,98967.67
2023-04-24T23:11:15.275Z,98965.29
2023-04-24T23:13:45.417Z,98963.02
2023-04-24T23:16:17.108Z,98959.08
2023-04-24T23:18:46.294Z,98955.96
2023-04-24T23:21:15.763Z,98956.10
2023-04-24T23:23:44.640Z,98956.61
2023-04-24T23:26:13.603Z,98961.17
2023-04-24T23:28:42.948Z,98966.05
2023-04-24T23:31:12.043Z,98965.34
2023-04-24T23:33:41.169Z,98961.10
2023-04-24T23:36:10.271Z,98958.86
2023-04-24T23:38:49.065Z,98963.90
2023-04-24T23:41:20.400Z,98964.10
2023-04-24T23:43:49.495Z,98965.32
2023-04-24T23:46:19.801Z,98965.52
2023-04-24T23:48:48.980Z,98965.33
2023-04-24T23:51:18.294Z,98962.20
2023-04-24T23:53:47.626Z,98962.78
2023-04-24T23:56:16.778Z,98962.63
2023-04-24T23:58:47.067Z,98962.13
